Aviation Digital Data Service (ADDS)

Output produced by METARs form (1625 UTC 22 June 2017)
found at http://aviationweather.gov/adds/metars/
 
KARA 221553Z 18015G25KT 10SM FEW012 28/25 A2970